Time;durP1;ratioP1;P1;durP2;ratioP2;P2;SDS_P1;SDS_P2;PMS_P1;PMS_P2;Temp;Humidity;BMP_temperature;BMP_pressure;BME280_temperature;BME280_humidity;BME280_pressure;Samples;Min_cycle;Max_cycle;Signal;HPM_P1;HPM_P2
2022/05/21 00:00:37;;;;;;;4.40;2.23;;;13.10;99.90;;;;;;5109651;27;20237;-60
2022/05/21 00:03:08;;;;;;;5.80;2.50;;;13.00;99.90;;;;;;5108515;27;20237;-60
2022/05/21 00:05:37;;;;;;;6.00;2.60;;;13.10;99.90;;;;;;5106164;27;20363;-60
2022/05/21 00:08:08;;;;;;;5.37;2.60;;;13.20;99.90;;;;;;5105603;27;21167;-61
2022/05/21 00:10:37;;;;;;;5.13;3.10;;;13.20;99.90;;;;;;5107344;27;20241;-60
2022/05/21 00:13:07;;;;;;;4.27;2.87;;;13.10;99.90;;;;;;5109344;27;20250;-60
2022/05/21 00:15:37;;;;;;;5.00;3.03;;;13.10;99.90;;;;;;5108823;27;21305;-60
2022/05/21 00:18:05;;;;;;;5.73;3.50;;;13.20;99.90;;;;;;5110250;27;20232;-60
2022/05/21 00:20:49;;;;;;;6.37;4.00;;;13.20;99.90;;;;;;5105795;27;20327;-60
2022/05/21 00:23:22;;;;;;;7.70;3.97;;;13.30;99.90;;;;;;5106231;27;20247;-60
2022/05/21 00:25:55;;;;;;;8.77;4.47;;;13.30;99.90;;;;;;5106837;27;20333;-61
2022/05/21 00:28:25;;;;;;;7.33;4.47;;;13.20;99.90;;;;;;5107600;27;20256;-60
2022/05/21 00:30:53;;;;;;;5.70;4.17;;;13.20;99.90;;;;;;5108398;27;21154;-60
2022/05/21 00:33:22;;;;;;;5.23;4.40;;;13.10;99.90;;;;;;5106744;27;20268;-60
2022/05/21 00:35:51;;;;;;;6.97;4.23;;;13.20;99.90;;;;;;5110708;27;20285;-60
2022/05/21 00:38:19;;;;;;;5.40;4.60;;;13.10;99.90;;;;;;5106156;27;20707;-60
2022/05/21 00:40:49;;;;;;;8.10;4.33;;;13.10;99.90;;;;;;5107709;27;20714;-60
2022/05/21 00:43:41;;;;;;;6.57;4.40;;;13.10;99.90;;;;;;5105919;27;20237;-60
2022/05/21 00:46:12;;;;;;;8.17;4.20;;;13.20;99.90;;;;;;5107171;27;20323;-60
2022/05/21 00:48:41;;;;;;;5.17;4.13;;;13.10;99.90;;;;;;5107853;27;20718;-60
2022/05/21 00:51:14;;;;;;;6.77;4.80;;;13.10;99.90;;;;;;5108394;27;20225;-61
2022/05/21 00:53:43;;;;;;;5.03;3.90;;;13.00;99.90;;;;;;5107572;27;20774;-60
2022/05/21 00:56:12;;;;;;;5.77;4.30;;;13.00;99.90;;;;;;5108906;27;20263;-61
2022/05/21 01:01:32;;;;;;;5.77;4.17;;;13.10;99.90;;;;;;5106862;27;20266;-60
2022/05/21 01:04:00;;;;;;;8.13;4.43;;;13.00;99.90;;;;;;5105521;27;20259;-60
2022/05/21 01:06:30;;;;;;;5.50;4.47;;;13.00;99.90;;;;;;5104603;27;20229;-61
2022/05/21 01:08:58;;;;;;;5.40;4.30;;;13.00;99.90;;;;;;5108108;27;20240;-60
2022/05/21 01:11:26;;;;;;;6.23;4.80;;;13.10;99.90;;;;;;5107560;27;20750;-60
2022/05/21 01:13:56;;;;;;;5.83;4.50;;;13.10;99.90;;;;;;5105516;27;20251;-60
2022/05/21 01:16:24;;;;;;;6.17;4.30;;;13.10;99.90;;;;;;5105838;27;20638;-61
2022/05/21 01:18:52;;;;;;;7.97;4.10;;;13.10;99.90;;;;;;5109661;27;20335;-61
2022/05/21 01:21:20;;;;;;;6.17;3.60;;;13.00;99.90;;;;;;5106653;27;20629;-61
2022/05/21 01:23:50;;;;;;;4.83;4.17;;;13.00;99.90;;;;;;5107026;28;20246;-60
2022/05/21 01:26:21;;;;;;;4.77;3.87;;;13.00;99.90;;;;;;5107397;27;20233;-60
2022/05/21 01:28:51;;;;;;;4.27;3.43;;;13.00;99.90;;;;;;5107943;27;20293;-60
2022/05/21 01:31:19;;;;;;;4.93;3.63;;;13.00;99.90;;;;;;5105592;27;21317;-61
2022/05/21 01:33:48;;;;;;;5.33;3.30;;;13.00;99.90;;;;;;5108438;27;20332;-60
2022/05/21 01:36:17;;;;;;;4.17;3.00;;;13.00;99.90;;;;;;5105629;27;20883;-60
2022/05/21 01:38:47;;;;;;;5.40;2.90;;;12.90;99.90;;;;;;5104424;27;20317;-61
2022/05/21 01:41:16;;;;;;;3.73;2.73;;;12.90;99.90;;;;;;5107963;27;20332;-61
2022/05/21 01:46:30;;;;;;;3.40;2.03;;;12.90;99.90;;;;;;5105232;28;20232;-60
2022/05/21 01:48:59;;;;;;;5.10;3.07;;;12.90;99.90;;;;;;5104914;28;20235;-61
2022/05/21 01:51:27;;;;;;;5.90;2.80;;;12.90;99.90;;;;;;5105798;28;20359;-61
2022/05/21 01:53:55;;;;;;;4.63;3.13;;;12.90;99.90;;;;;;5105763;28;20236;-60
2022/05/21 01:56:24;;;;;;;6.00;3.80;;;12.80;99.90;;;;;;5106238;28;20837;-60
2022/05/21 01:58:52;;;;;;;3.80;3.10;;;12.80;99.90;;;;;;5106799;28;20240;-61
2022/05/21 02:01:20;;;;;;;5.33;3.30;;;12.80;99.90;;;;;;5105712;28;20236;-61
2022/05/21 02:03:49;;;;;;;5.17;3.53;;;12.80;99.90;;;;;;5106691;28;20240;-61
2022/05/21 02:06:17;;;;;;;4.33;3.60;;;12.80;99.90;;;;;;5107960;28;20240;-60
2022/05/21 02:08:45;;;;;;;5.00;3.47;;;12.80;99.90;;;;;;5105494;28;20240;-60
2022/05/21 02:11:13;;;;;;;5.20;3.70;;;12.80;99.90;;;;;;5107736;28;20257;-60
2022/05/21 02:13:43;;;;;;;6.37;3.27;;;12.80;99.90;;;;;;5106599;28;20327;-60
2022/05/21 02:16:11;;;;;;;5.70;3.40;;;12.80;99.90;;;;;;5107232;28;20617;-60
2022/05/21 02:18:39;;;;;;;6.00;3.53;;;12.80;99.90;;;;;;5105468;28;20232;-60
2022/05/21 02:21:07;;;;;;;4.07;3.00;;;12.80;99.90;;;;;;5107268;27;20695;-61
2022/05/21 02:23:36;;;;;;;5.57;3.40;;;12.80;99.90;;;;;;5109211;27;20229;-61
2022/05/21 02:26:04;;;;;;;4.43;3.27;;;12.90;99.90;;;;;;5109619;27;20237;-61
2022/05/21 02:28:32;;;;;;;4.50;2.90;;;12.80;99.90;;;;;;5111279;27;20241;-61
2022/05/21 02:31:02;;;;;;;5.43;3.10;;;12.80;99.90;;;;;;5110928;27;20240;-60
2022/05/21 02:33:30;;;;;;;3.23;2.93;;;12.80;99.90;;;;;;5109944;27;20326;-60
2022/05/21 02:35:58;;;;;;;5.73;3.00;;;12.90;99.90;;;;;;5109911;27;20247;-59
2022/05/21 02:41:13;;;;;;;6.37;3.63;;;12.80;99.90;;;;;;5110333;27;20272;-60
2022/05/21 02:43:43;;;;;;;4.40;2.93;;;12.70;99.90;;;;;;5108732;27;20871;-60
2022/05/21 02:46:13;;;;;;;4.57;3.10;;;12.70;99.90;;;;;;5109816;27;20252;-61
2022/05/21 02:48:42;;;;;;;7.70;3.70;;;12.70;99.90;;;;;;5108556;27;21403;-60
2022/05/21 02:51:11;;;;;;;4.30;3.13;;;12.60;99.90;;;;;;5110707;27;20236;-60
2022/05/21 02:53:40;;;;;;;4.73;3.33;;;12.60;99.90;;;;;;5109141;27;20225;-61
2022/05/21 02:56:13;;;;;;;4.73;3.30;;;12.60;99.90;;;;;;5109967;27;20319;-60
2022/05/21 02:58:41;;;;;;;4.07;3.37;;;12.60;99.90;;;;;;5110321;27;20969;-60
2022/05/21 03:01:09;;;;;;;5.57;3.60;;;12.60;99.90;;;;;;5107685;27;20247;-61
2022/05/21 03:03:39;;;;;;;5.00;3.30;;;12.70;99.90;;;;;;5108063;27;20233;-60
2022/05/21 03:06:07;;;;;;;5.30;3.53;;;12.70;99.90;;;;;;5110272;27;20715;-60
2022/05/21 03:11:22;;;;;;;4.50;3.30;;;12.80;99.90;;;;;;5107588;27;20295;-60
2022/05/21 03:13:50;;;;;;;4.80;3.47;;;12.80;99.90;;;;;;5109104;27;20234;-60
2022/05/21 03:16:18;;;;;;;6.43;3.80;;;12.80;99.90;;;;;;5097167;27;20647;-61
2022/05/21 03:18:47;;;;;;;5.20;3.20;;;12.80;99.90;;;;;;5110763;27;20648;-61
2022/05/21 03:21:15;;;;;;;4.43;3.13;;;12.70;99.90;;;;;;5108652;27;20327;-60
2022/05/21 03:23:47;;;;;;;6.13;3.40;;;12.70;99.90;;;;;;5106552;27;20241;-61
2022/05/21 03:26:15;;;;;;;6.47;3.47;;;12.70;99.90;;;;;;5110596;27;20538;-60
2022/05/21 03:28:43;;;;;;;6.33;3.60;;;12.60;99.90;;;;;;5107647;27;20232;-61
2022/05/21 03:31:12;;;;;;;3.60;3.30;;;12.80;99.90;;;;;;5109756;27;20245;-60
2022/05/21 03:33:40;;;;;;;5.53;3.80;;;12.70;99.90;;;;;;5110790;27;20313;-61
2022/05/21 03:36:09;;;;;;;6.90;4.23;;;12.70;99.90;;;;;;5108757;27;20244;-61
2022/05/21 03:38:38;;;;;;;5.70;4.17;;;12.60;99.90;;;;;;5111451;27;20241;-60
2022/05/21 03:41:06;;;;;;;5.60;4.77;;;12.60;99.90;;;;;;5108574;27;20247;-61
2022/05/21 03:43:34;;;;;;;5.10;3.90;;;12.60;99.90;;;;;;5108140;27;20244;-60
2022/05/21 03:46:03;;;;;;;7.20;5.07;;;12.60;99.90;;;;;;5109599;27;20280;-60
2022/05/21 03:48:32;;;;;;;7.10;5.00;;;12.60;99.90;;;;;;5109286;27;20286;-61
2022/05/21 03:51:00;;;;;;;6.77;5.40;;;12.60;99.90;;;;;;5108849;27;20233;-60
2022/05/21 03:53:30;;;;;;;7.47;5.87;;;12.60;99.90;;;;;;5108585;27;20599;-61
2022/05/21 03:55:59;;;;;;;8.43;6.40;;;12.60;99.90;;;;;;5109714;27;20780;-60
2022/05/21 03:58:27;;;;;;;6.93;6.10;;;12.70;99.90;;;;;;5108360;27;20896;-60
2022/05/21 04:00:55;;;;;;;9.27;6.57;;;12.70;99.90;;;;;;5107637;27;20368;-60
2022/05/21 04:03:24;;;;;;;8.20;6.23;;;12.70;99.90;;;;;;5108230;27;20240;-60
2022/05/21 04:05:55;;;;;;;10.10;6.93;;;12.70;99.90;;;;;;5108171;27;20288;-59
2022/05/21 04:08:23;;;;;;;10.87;6.63;;;12.70;99.90;;;;;;5106037;27;20241;-61
2022/05/21 04:10:53;;;;;;;9.53;7.10;;;12.70;99.90;;;;;;5113244;27;20242;-60
2022/05/21 04:13:22;;;;;;;10.07;7.50;;;12.70;99.90;;;;;;5109412;27;20654;-61
2022/05/21 04:15:50;;;;;;;8.90;6.90;;;12.80;99.90;;;;;;5111377;27;20248;-60
2022/05/21 04:18:18;;;;;;;9.50;7.80;;;12.80;99.90;;;;;;5110567;27;20259;-61
2022/05/21 04:20:50;;;;;;;18.37;9.53;;;12.80;99.90;;;;;;5112705;27;20764;-61
2022/05/21 04:23:18;;;;;;;10.67;8.57;;;12.80;99.90;;;;;;5111084;27;20607;-60
2022/05/21 04:25:47;;;;;;;11.53;8.80;;;12.80;99.90;;;;;;5110429;27;20633;-61
2022/05/21 04:28:19;;;;;;;11.43;9.57;;;12.80;99.90;;;;;;5095650;27;20248;-60
2022/05/21 04:30:47;;;;;;;11.20;9.57;;;12.80;99.90;;;;;;5112341;27;20244;-60
2022/05/21 04:33:15;;;;;;;15.57;9.60;;;12.80;99.90;;;;;;5109611;27;20244;-60
2022/05/21 04:38:29;;;;;;;14.30;10.27;;;13.00;99.90;;;;;;5114277;27;20295;-61
2022/05/21 04:40:57;;;;;;;14.10;9.70;;;13.00;99.90;;;;;;5111214;27;20228;-59
2022/05/21 04:43:27;;;;;;;12.13;10.27;;;13.00;99.90;;;;;;5110152;27;20244;-60
2022/05/21 04:46:01;;;;;;;12.97;10.67;;;13.00;99.90;;;;;;5112532;27;20236;-60
2022/05/21 04:48:30;;;;;;;15.97;10.77;;;12.90;99.90;;;;;;5109881;27;20234;-59
2022/05/21 04:51:00;;;;;;;17.13;12.27;;;12.90;99.90;;;;;;5111415;27;20240;-61
2022/05/21 04:53:29;;;;;;;14.57;11.67;;;12.90;99.90;;;;;;5105932;27;20236;-61
2022/05/21 04:55:58;;;;;;;16.30;13.07;;;12.90;99.90;;;;;;5107673;27;20246;-60
2022/05/21 04:58:28;;;;;;;13.17;11.87;;;12.90;99.90;;;;;;5107972;27;20438;-61
2022/05/21 05:00:56;;;;;;;15.27;12.63;;;13.00;99.90;;;;;;5109100;27;20243;-60
2022/05/21 05:03:25;;;;;;;16.93;13.13;;;13.00;99.90;;;;;;5104907;27;20247;-60
2022/05/21 05:05:53;;;;;;;17.70;12.83;;;13.00;99.90;;;;;;5106655;27;20254;-61
2022/05/21 05:08:23;;;;;;;18.37;14.53;;;12.90;99.90;;;;;;5106296;27;20332;-61
2022/05/21 05:10:52;;;;;;;18.23;14.40;;;12.90;99.90;;;;;;5107277;27;20232;-60
2022/05/21 05:13:20;;;;;;;17.33;14.60;;;12.90;99.90;;;;;;5106371;27;20244;-60
2022/05/21 05:15:49;;;;;;;16.47;14.33;;;12.90;99.90;;;;;;5111666;27;20224;-61
2022/05/21 05:18:19;;;;;;;17.10;14.87;;;12.90;99.90;;;;;;5110429;27;20293;-60
2022/05/21 05:20:48;;;;;;;16.63;14.53;;;12.80;99.90;;;;;;5110609;27;20240;-61
2022/05/21 05:23:17;;;;;;;18.70;15.00;;;12.80;99.90;;;;;;5110410;27;20240;-61
2022/05/21 05:25:45;;;;;;;19.40;15.17;;;12.90;99.90;;;;;;5107689;27;20237;-61
2022/05/21 05:28:19;;;;;;;18.87;15.20;;;12.80;99.90;;;;;;5107201;27;20237;-60
2022/05/21 05:30:49;;;;;;;16.97;14.77;;;12.70;99.90;;;;;;5107064;27;20741;-60
2022/05/21 05:33:17;;;;;;;18.00;15.37;;;12.80;99.90;;;;;;5108377;27;20248;-61
2022/05/21 05:35:48;;;;;;;18.07;16.17;;;12.90;99.90;;;;;;5107458;27;20233;-59
2022/05/21 05:38:16;;;;;;;17.43;15.63;;;12.90;99.90;;;;;;5104367;27;20767;-60
2022/05/21 05:40:46;;;;;;;18.73;16.67;;;12.90;99.90;;;;;;5105333;28;20336;-60
2022/05/21 05:43:17;;;;;;;22.33;17.03;;;12.90;99.90;;;;;;5104502;28;20248;-60
2022/05/21 05:45:45;;;;;;;18.87;16.93;;;12.90;99.90;;;;;;5107059;28;20257;-60
2022/05/21 05:48:16;;;;;;;21.23;17.23;;;12.90;99.90;;;;;;5105842;28;20596;-60
2022/05/21 05:50:44;;;;;;;19.47;17.33;;;12.90;99.90;;;;;;5106716;28;20278;-59
2022/05/21 05:53:13;;;;;;;19.53;17.37;;;12.90;99.90;;;;;;5105890;28;20228;-60
2022/05/21 05:55:42;;;;;;;19.27;16.80;;;13.00;99.90;;;;;;5108502;28;20707;-60
2022/05/21 06:00:56;;;;;;;20.33;17.70;;;13.00;99.90;;;;;;5112144;27;20330;-61
2022/05/21 06:03:26;;;;;;;21.67;18.03;;;13.10;99.90;;;;;;5112939;27;20236;-60
2022/05/21 06:05:54;;;;;;;22.90;18.97;;;13.20;99.90;;;;;;5112531;27;20247;-61
2022/05/21 06:08:23;;;;;;;23.77;18.30;;;13.30;99.90;;;;;;5113653;27;20237;-60
2022/05/21 06:10:52;;;;;;;24.53;18.60;;;13.20;99.90;;;;;;5112798;27;20724;-61
2022/05/21 06:13:20;;;;;;;22.93;18.23;;;13.20;99.90;;;;;;5112605;27;20246;-61
2022/05/21 06:15:48;;;;;;;23.47;18.80;;;13.20;99.90;;;;;;5114917;27;20245;-60
2022/05/21 06:18:20;;;;;;;23.07;19.20;;;13.30;99.90;;;;;;5113205;27;20611;-60
2022/05/21 06:20:50;;;;;;;23.47;18.00;;;13.30;99.90;;;;;;5115528;27;20244;-60
2022/05/21 06:23:18;;;;;;;22.67;18.33;;;13.40;99.90;;;;;;5113358;27;20248;-61
2022/05/21 06:25:48;;;;;;;20.13;18.03;;;13.40;99.90;;;;;;5114369;27;21105;-61
2022/05/21 06:28:16;;;;;;;23.57;19.03;;;13.40;99.90;;;;;;5113935;27;20284;-61
2022/05/21 06:30:46;;;;;;;22.70;18.40;;;13.40;99.90;;;;;;5113558;27;20272;-61
2022/05/21 06:33:17;;;;;;;21.17;17.70;;;13.40;99.90;;;;;;5112185;27;20251;-60
2022/05/21 06:35:46;;;;;;;22.63;16.50;;;13.40;99.90;;;;;;5114798;27;20298;-60
2022/05/21 06:38:17;;;;;;;22.47;18.30;;;13.40;99.90;;;;;;5109464;27;20244;-61
2022/05/21 06:40:46;;;;;;;22.00;18.73;;;13.50;99.90;;;;;;5107974;27;20240;-60
2022/05/21 06:43:16;;;;;;;24.03;18.33;;;13.60;99.90;;;;;;5107847;27;20236;-60
2022/05/21 06:45:44;;;;;;;21.03;17.57;;;13.60;99.90;;;;;;5106893;27;21149;-61
2022/05/21 06:48:12;;;;;;;22.97;17.67;;;13.60;99.90;;;;;;5112265;27;20244;-60
2022/05/21 06:50:41;;;;;;;20.37;16.43;;;13.60;99.90;;;;;;5111504;27;20292;-61
2022/05/21 06:53:09;;;;;;;22.87;17.33;;;13.70;99.90;;;;;;5112100;27;20235;-61
2022/05/21 06:55:40;;;;;;;21.07;17.00;;;13.70;99.90;;;;;;5111366;27;20245;-61
2022/05/21 06:58:09;;;;;;;20.80;16.47;;;13.70;99.90;;;;;;5110195;27;20321;-61
2022/05/21 07:00:37;;;;;;;19.70;15.80;;;13.90;99.90;;;;;;5111774;27;20603;-61
2022/05/21 07:03:05;;;;;;;20.93;15.67;;;14.00;99.90;;;;;;5111632;27;20264;-61
2022/05/21 07:08:22;;;;;;;18.87;13.83;;;14.30;99.90;;;;;;5109893;27;20261;-61
2022/05/21 07:10:52;;;;;;;19.73;14.40;;;14.40;99.90;;;;;;5107729;27;20294;-61
2022/05/21 07:13:22;;;;;;;21.80;13.13;;;14.60;99.90;;;;;;5108538;27;20229;-61
2022/05/21 07:15:52;;;;;;;18.93;13.40;;;14.70;99.90;;;;;;5109344;27;20260;-61
2022/05/21 07:18:22;;;;;;;15.33;12.43;;;14.80;99.90;;;;;;5109058;27;20745;-60
2022/05/21 07:20:51;;;;;;;17.67;12.53;;;15.10;99.90;;;;;;5109326;27;20712;-60
2022/05/21 07:23:19;;;;;;;16.97;12.10;;;15.00;99.90;;;;;;5109080;27;20250;-61
2022/05/21 07:25:48;;;;;;;15.70;12.77;;;14.90;99.90;;;;;;5108163;27;20254;-61
2022/05/21 07:28:18;;;;;;;14.80;11.07;;;14.90;99.90;;;;;;5107279;27;20324;-60
2022/05/21 07:30:47;;;;;;;14.73;10.83;;;14.80;99.90;;;;;;5107801;27;20316;-61
2022/05/21 07:33:18;;;;;;;16.27;10.70;;;14.70;99.90;;;;;;5106740;27;20233;-61
2022/05/21 07:35:47;;;;;;;15.87;10.37;;;14.60;99.90;;;;;;5109078;27;20275;-60
2022/05/21 07:38:16;;;;;;;12.87;9.23;;;14.60;99.90;;;;;;5108124;27;20819;-61
2022/05/21 07:40:46;;;;;;;13.33;9.17;;;14.50;99.90;;;;;;5111250;27;20251;-60
2022/05/21 07:43:18;;;;;;;12.77;8.37;;;14.50;99.90;;;;;;5108293;27;20236;-60
2022/05/21 07:45:48;;;;;;;11.13;7.33;;;14.40;99.90;;;;;;5108823;27;20329;-60
2022/05/21 07:48:18;;;;;;;10.37;7.50;;;14.30;99.90;;;;;;5108836;27;20661;-61
2022/05/21 07:50:48;;;;;;;11.30;6.90;;;14.20;99.90;;;;;;5110624;27;20289;-61
2022/05/21 07:53:21;;;;;;;12.03;7.43;;;14.20;99.90;;;;;;5111264;27;20233;-61
2022/05/21 07:55:51;;;;;;;13.00;6.67;;;14.20;99.90;;;;;;5110971;27;20234;-61
2022/05/21 07:58:22;;;;;;;13.83;6.73;;;14.20;99.90;;;;;;5108236;27;20246;-61
2022/05/21 08:00:52;;;;;;;9.20;5.40;;;14.20;99.90;;;;;;5109285;27;20719;-61
2022/05/21 08:03:22;;;;;;;7.87;4.73;;;14.20;99.90;;;;;;5107090;27;20234;-61
2022/05/21 08:05:50;;;;;;;8.67;4.00;;;14.10;99.90;;;;;;5107967;27;20232;-61
2022/05/21 08:08:19;;;;;;;8.47;4.13;;;14.10;99.90;;;;;;5109425;27;20573;-61
2022/05/21 08:10:47;;;;;;;6.40;3.03;;;14.10;99.90;;;;;;5109227;27;20269;-61
2022/05/21 08:13:17;;;;;;;10.27;3.30;;;14.10;99.90;;;;;;5109560;27;20234;-61
2022/05/21 08:15:46;;;;;;;7.33;2.70;;;14.00;99.90;;;;;;5107717;27;20665;-61
2022/05/21 08:18:15;;;;;;;8.37;2.53;;;13.90;99.90;;;;;;5110010;27;20237;-61
2022/05/21 08:20:43;;;;;;;6.47;2.30;;;13.80;99.90;;;;;;5107360;27;20267;-61
2022/05/21 08:28:46;;;;;;;6.90;2.40;;;13.80;99.90;;;;;;5108311;27;20243;-61
2022/05/21 08:31:16;;;;;;;5.93;2.27;;;13.80;99.90;;;;;;5106377;27;20240;-60
2022/05/21 08:33:44;;;;;;;5.93;2.30;;;13.80;99.90;;;;;;5106235;27;20241;-60
2022/05/21 08:36:13;;;;;;;6.80;2.27;;;14.00;99.90;;;;;;5107000;27;20229;-61
2022/05/21 08:38:46;;;;;;;8.97;2.73;;;14.00;99.90;;;;;;5107739;27;20331;-60
2022/05/21 08:41:20;;;;;;;5.00;2.17;;;14.00;99.90;;;;;;5106919;27;20226;-61
2022/05/21 08:44:00;;;;;;;7.70;2.60;;;14.20;99.90;;;;;;5108222;27;20276;-60
2022/05/21 08:46:38;;;;;;;8.43;2.43;;;14.30;99.90;;;;;;5108025;27;20746;-60
2022/05/21 08:49:09;;;;;;;7.90;2.30;;;14.40;99.90;;;;;;5104813;27;20234;-61
2022/05/21 08:51:44;;;;;;;6.37;2.23;;;14.50;99.90;;;;;;5108016;27;20718;-60
2022/05/21 08:54:23;;;;;;;8.87;2.27;;;14.50;99.90;;;;;;5107804;27;20249;-61
2022/05/21 08:56:54;;;;;;;8.90;2.50;;;14.60;99.90;;;;;;5105704;27;20290;-61
2022/05/21 08:59:30;;;;;;;4.20;1.87;;;14.90;99.90;;;;;;5108877;27;20241;-59
2022/05/21 09:01:59;;;;;;;7.63;2.00;;;15.10;99.90;;;;;;5106902;27;20297;-61
2022/05/21 09:04:30;;;;;;;8.33;2.10;;;15.70;99.90;;;;;;5106571;27;20233;-59
2022/05/21 09:07:02;;;;;;;5.73;1.70;;;16.00;99.90;;;;;;5108531;27;20241;-61
2022/05/21 09:09:43;;;;;;;5.37;1.30;;;16.20;99.90;;;;;;5107464;27;20229;-61
2022/05/21 09:12:19;;;;;;;2.80;1.13;;;16.30;99.90;;;;;;5108516;27;20233;-61
2022/05/21 09:14:50;;;;;;;3.97;1.40;;;16.30;99.90;;;;;;5105368;27;20283;-61
2022/05/21 09:17:21;;;;;;;4.87;1.40;;;16.30;99.90;;;;;;5107339;27;20331;-62
2022/05/21 09:19:52;;;;;;;5.13;1.53;;;16.90;99.90;;;;;;5110641;27;20313;-62
2022/05/21 09:22:22;;;;;;;3.47;1.27;;;17.20;99.90;;;;;;5112128;27;20282;-61
2022/05/21 09:25:19;;;;;;;5.77;1.80;;;16.90;99.90;;;;;;5111187;27;20225;-61
2022/05/21 09:27:49;;;;;;;5.53;1.70;;;16.60;99.90;;;;;;5111879;27;20240;-61
2022/05/21 09:30:25;;;;;;;6.57;1.90;;;16.60;99.90;;;;;;5106503;27;20283;-61
2022/05/21 09:32:56;;;;;;;6.27;1.70;;;16.80;99.90;;;;;;5105737;27;20732;-61
2022/05/21 09:35:26;;;;;;;9.10;2.10;;;17.30;99.90;;;;;;5106570;27;20241;-62
2022/05/21 09:37:55;;;;;;;6.37;1.90;;;18.10;99.90;;;;;;5105717;27;20269;-61
2022/05/21 09:40:34;;;;;;;4.57;1.73;;;18.70;99.90;;;;;;5105556;28;20237;-61
2022/05/21 09:45:50;;;;;;;6.13;1.83;;;19.40;99.90;;;;;;5111060;28;20239;-62
2022/05/21 09:48:23;;;;;;;7.37;1.93;;;19.90;99.90;;;;;;5108060;28;20244;-62
2022/05/21 09:50:53;;;;;;;6.63;1.80;;;19.70;99.90;;;;;;5107595;28;20281;-62
2022/05/21 09:53:31;;;;;;;8.80;2.00;;;19.50;99.90;;;;;;5102806;28;20239;-62
2022/05/21 09:56:06;;;;;;;7.07;1.53;;;19.80;99.90;;;;;;5106934;28;20266;-62
2022/05/21 09:58:38;;;;;;;9.13;2.03;;;20.00;99.90;;;;;;5103571;28;20246;-63
2022/05/21 10:01:09;;;;;;;5.93;1.50;;;20.60;99.90;;;;;;5104583;28;20243;-62
2022/05/21 10:03:43;;;;;;;3.67;1.30;;;20.90;99.90;;;;;;5102524;28;20700;-62
2022/05/21 10:06:23;;;;;;;4.43;1.40;;;20.60;99.90;;;;;;5099664;28;20242;-62
2022/05/21 10:11:53;;;;;;;5.20;1.80;;;19.40;99.90;;;;;;5100671;28;20368;-62
2022/05/21 10:14:26;;;;;;;6.40;1.47;;;18.70;99.90;;;;;;5095652;28;21424;-62
2022/05/21 10:16:57;;;;;;;9.37;1.60;;;19.00;99.90;;;;;;5099029;28;21476;-62
2022/05/21 10:19:35;;;;;;;5.40;1.70;;;19.50;99.90;;;;;;5099349;28;20228;-66
2022/05/21 10:22:26;;;;;;;4.90;1.47;;;19.90;99.90;;;;;;5098436;28;20633;-66
2022/05/21 10:25:03;;;;;;;6.80;1.97;;;20.20;99.90;;;;;;5097183;28;20255;-66
2022/05/21 10:27:49;;;;;;;6.40;1.83;;;19.40;99.90;;;;;;5100979;28;20610;-66
2022/05/21 10:30:24;;;;;;;7.63;1.90;;;18.90;99.90;;;;;;5101444;28;20259;-66
2022/05/21 10:33:05;;;;;;;5.00;1.80;;;18.80;99.90;;;;;;5095333;28;20860;-66
2022/05/21 10:35:57;;;;;;;5.60;1.47;;;19.50;99.90;;;;;;5097269;28;20253;-66
2022/05/21 10:38:51;;;;;;;5.70;1.67;;;19.50;99.90;;;;;;5097654;28;20275;-66
2022/05/21 10:41:34;;;;;;;5.10;1.57;;;19.30;99.90;;;;;;5087298;28;20881;-66
2022/05/21 10:44:20;;;;;;;4.73;1.40;;;20.00;99.90;;;;;;5099817;27;20627;-66
2022/05/21 10:46:57;;;;;;;7.33;1.50;;;20.80;99.90;;;;;;5103774;27;20239;-66
2022/05/21 10:49:54;;;;;;;6.03;1.93;;;20.90;99.90;;;;;;5104571;27;20238;-66
2022/05/21 10:52:33;;;;;;;6.50;1.70;;;21.20;99.90;;;;;;5104926;27;20624;-66
2022/05/21 10:55:12;;;;;;;5.57;1.50;;;21.20;99.90;;;;;;5102546;27;20323;-66
2022/05/21 10:58:00;;;;;;;4.63;1.43;;;20.90;99.90;;;;;;5105790;27;20262;-66
2022/05/21 11:00:35;;;;;;;4.70;1.70;;;20.20;99.90;;;;;;5104453;27;20704;-66
2022/05/21 11:03:44;;;;;;;6.93;1.90;;;20.30;99.90;;;;;;5102814;27;20607;-66
2022/05/21 11:06:47;;;;;;;6.50;1.70;;;20.70;99.90;;;;;;5105638;27;20689;-67
2022/05/21 11:09:25;;;;;;;7.27;1.33;;;20.10;99.90;;;;;;5104261;27;21108;-66
2022/05/21 11:12:00;;;;;;;6.50;1.33;;;19.20;99.90;;;;;;5105502;27;20244;-66
2022/05/21 11:14:40;;;;;;;5.07;1.50;;;19.10;99.90;;;;;;5098934;27;20609;-66
2022/05/21 11:17:25;;;;;;;5.70;1.77;;;19.20;99.90;;;;;;5102732;27;20248;-66
2022/05/21 11:19:59;;;;;;;3.40;1.20;;;19.00;99.90;;;;;;5102691;27;20271;-66
2022/05/21 11:22:36;;;;;;;4.73;1.63;;;18.90;99.90;;;;;;5105055;27;20264;-66
2022/05/21 11:25:13;;;;;;;5.67;1.70;;;19.20;99.90;;;;;;5100816;27;20315;-66
2022/05/21 11:27:50;;;;;;;6.30;1.40;;;19.40;99.90;;;;;;5101223;27;20247;-65
2022/05/21 11:30:20;;;;;;;3.97;1.60;;;19.20;99.90;;;;;;5100318;27;20241;-65
2022/05/21 11:38:32;;;;;;;9.13;1.43;;;18.80;99.90;;;;;;5101520;27;20281;-65
2022/05/21 11:46:48;;;;;;;4.90;1.10;;;18.90;99.90;;;;;;5108105;27;20221;-66
2022/05/21 11:49:38;;;;;;;4.70;1.23;;;19.00;99.90;;;;;;5107966;27;20223;-65
2022/05/21 11:52:39;;;;;;;4.73;1.27;;;19.00;99.90;;;;;;5107955;27;20286;-65
2022/05/21 11:55:15;;;;;;;5.10;1.20;;;18.60;99.90;;;;;;5107255;27;20768;-65
2022/05/21 11:57:52;;;;;;;6.57;1.83;;;18.70;99.90;;;;;;5107848;27;20247;-65
2022/05/21 12:00:46;;;;;;;3.60;1.07;;;18.90;99.90;;;;;;5107365;27;20650;-65
2022/05/21 12:03:17;;;;;;;5.70;2.00;;;18.80;99.90;;;;;;5108506;27;20312;-66
2022/05/21 12:06:30;;;;;;;7.17;2.13;;;18.80;99.90;;;;;;5110189;27;20323;-65
2022/05/21 12:09:23;;;;;;;5.63;1.60;;;19.10;99.90;;;;;;5106064;27;20294;-65
2022/05/21 12:11:52;;;;;;;8.90;1.83;;;19.00;99.90;;;;;;5107589;27;21050;-65
2022/05/21 12:14:28;;;;;;;8.03;1.70;;;18.80;99.90;;;;;;5105663;27;20236;-65
2022/05/21 12:16:59;;;;;;;6.83;1.43;;;18.70;99.90;;;;;;5106879;27;21067;-65
2022/05/21 12:20:02;;;;;;;5.40;1.70;;;18.80;99.90;;;;;;5108728;27;20264;-65
2022/05/21 12:22:50;;;;;;;4.03;1.20;;;18.70;99.90;;;;;;5040553;28;20324;-65
2022/05/21 12:25:58;;;;;;;4.37;1.90;;;18.70;99.90;;;;;;5102244;27;20319;-65
2022/05/21 12:28:47;;;;;;;6.87;1.73;;;18.80;99.90;;;;;;5106203;27;20659;-65
2022/05/21 12:31:23;;;;;;;5.33;1.30;;;18.70;99.90;;;;;;5108708;27;20240;-66
2022/05/21 12:34:20;;;;;;;6.00;1.63;;;18.50;99.90;;;;;;5108321;27;20247;-65
2022/05/21 12:36:56;;;;;;;4.87;1.50;;;18.60;99.90;;;;;;5051029;28;20245;-65
2022/05/21 12:39:31;;;;;;;7.13;1.47;;;18.80;99.90;;;;;;5105559;27;20358;-65
2022/05/21 12:42:07;;;;;;;4.17;1.20;;;18.70;99.90;;;;;;5106486;27;20318;-65
2022/05/21 12:44:39;;;;;;;4.30;1.00;;;18.50;99.90;;;;;;5105429;27;20239;-65
2022/05/21 12:47:11;;;;;;;4.67;1.27;;;18.20;99.90;;;;;;5107897;27;20275;-65
2022/05/21 12:49:48;;;;;;;4.03;1.20;;;18.30;99.90;;;;;;5107669;27;20231;-65
2022/05/21 12:52:24;;;;;;;3.33;1.10;;;18.20;99.90;;;;;;5107800;27;20328;-65
2022/05/21 12:55:15;;;;;;;4.67;1.30;;;18.30;99.90;;;;;;5105094;27;20331;-65
2022/05/21 12:57:43;;;;;;;5.63;1.73;;;18.50;99.90;;;;;;5107378;27;20334;-65
2022/05/21 13:00:14;;;;;;;4.87;1.13;;;18.50;99.90;;;;;;5108563;27;20567;-65
2022/05/21 13:02:46;;;;;;;4.57;1.20;;;18.40;99.90;;;;;;5103916;27;20606;-65
2022/05/21 13:05:21;;;;;;;3.47;1.10;;;18.20;99.90;;;;;;5106610;27;20247;-65
2022/05/21 13:07:51;;;;;;;6.60;1.60;;;18.00;99.90;;;;;;5107336;27;20321;-65
2022/05/21 13:10:23;;;;;;;6.33;2.00;;;17.90;99.90;;;;;;5106932;27;20257;-65
2022/05/21 13:12:54;;;;;;;4.37;1.27;;;17.80;99.90;;;;;;5106579;27;20238;-65
2022/05/21 13:15:26;;;;;;;6.07;1.10;;;17.80;99.90;;;;;;5106300;27;20231;-65
2022/05/21 13:18:11;;;;;;;6.77;1.33;;;17.80;99.90;;;;;;5108363;27;20379;-65
2022/05/21 13:20:48;;;;;;;5.73;1.57;;;17.80;99.90;;;;;;5107184;27;20310;-65
2022/05/21 13:23:38;;;;;;;5.47;1.43;;;17.80;99.90;;;;;;5103287;27;20253;-65
2022/05/21 13:26:07;;;;;;;5.70;1.47;;;18.20;99.90;;;;;;5104196;27;20255;-65
2022/05/21 13:28:35;;;;;;;4.97;1.30;;;18.10;99.90;;;;;;5104532;27;20705;-65
2022/05/21 13:31:16;;;;;;;8.03;1.43;;;18.00;99.90;;;;;;5093262;27;20262;-65
2022/05/21 13:33:50;;;;;;;4.40;1.20;;;18.10;99.90;;;;;;5102195;28;20249;-67
2022/05/21 13:36:21;;;;;;;6.60;1.77;;;18.10;99.90;;;;;;5107767;27;20249;-66
2022/05/21 13:38:53;;;;;;;4.23;1.60;;;17.90;99.90;;;;;;5103436;28;20239;-67
2022/05/21 13:41:29;;;;;;;6.43;1.40;;;18.00;99.90;;;;;;5106232;27;20246;-67
2022/05/21 13:43:59;;;;;;;8.97;1.90;;;17.90;99.90;;;;;;5107243;27;20798;-67
2022/05/21 13:46:30;;;;;;;7.33;1.50;;;17.90;99.90;;;;;;5106286;27;20263;-67
2022/05/21 13:49:05;;;;;;;4.67;1.47;;;17.90;99.90;;;;;;5108139;28;20704;-67